createdAt,value
2019-05-12T00:02:11.511Z,101768.97
2019-05-12T00:06:14.982Z,101771.52
2019-05-12T00:10:18.706Z,101773.48
2019-05-12T00:14:22.197Z,101782.53
2019-05-12T00:18:25.671Z,101786.50
2019-05-12T00:22:31.135Z,101789.52
2019-05-12T00:26:34.610Z,101783.48
2019-05-12T00:30:39.729Z,101785.31
2019-05-12T00:34:48.046Z,101798.45
2019-05-12T00:38:51.130Z,101804.56
2019-05-12T00:42:54.599Z,101815.15
2019-05-12T00:46:58.085Z,101828.02
2019-05-12T00:51:01.851Z,101830.95
2019-05-12T00:55:07.932Z,101836.27
2019-05-12T00:59:11.384Z,101849.29
2019-05-12T01:03:14.868Z,101857.88
2019-05-12T01:07:18.465Z,101859.75
2019-05-12T01:11:22.169Z,101863.69
2019-05-12T01:15:25.643Z,101868.91
2019-05-12T01:19:29.122Z,101876.43
2019-05-12T01:23:32.599Z,101885.09
2019-05-12T01:27:38.103Z,101885.92
2019-05-12T01:31:42.919Z,101900.05
2019-05-12T01:35:48.282Z,101900.53
2019-05-12T01:39:59.738Z,101903.97
2019-05-12T01:44:00.455Z,101904.66
2019-05-12T01:48:03.942Z,101919.61
2019-05-12T01:52:08.685Z,101933.34
2019-05-12T01:56:12.179Z,101938.19
2019-05-12T02:00:18.281Z,101948.58
2019-05-12T02:04:21.550Z,101951.27
2019-05-12T02:08:32.720Z,101955.46
2019-05-12T02:12:38.352Z,101964.61
2019-05-12T02:16:41.708Z,101969.58
2019-05-12T02:20:45.186Z,101979.46
2019-05-12T02:24:49.038Z,101980.86
2019-05-12T02:28:52.518Z,101991.27
2019-05-12T02:32:59.162Z,101997.20
2019-05-12T02:37:04.987Z,101996.53
2019-05-12T02:41:06.414Z,101996.31
2019-05-12T02:45:10.540Z,101997.31
2019-05-12T02:49:15.687Z,102001.21
2019-05-12T02:53:19.224Z,102017.36
2019-05-12T02:57:25.719Z,102017.44
2019-05-12T03:01:29.930Z,102023.97
2019-05-12T03:05:35.535Z,102025.67
2019-05-12T03:09:40.403Z,102032.67
2019-05-12T03:13:44.948Z,102037.45
2019-05-12T03:17:50.071Z,102042.55
2019-05-12T03:21:54.756Z,102053.39
2019-05-12T03:25:58.474Z,102044.80
2019-05-12T03:30:06.291Z,102053.27
2019-05-12T03:34:10.261Z,102053.31
2019-05-12T03:38:14.921Z,102061.50
2019-05-12T03:42:17.911Z,102065.41
2019-05-12T03:46:24.548Z,102070.05
2019-05-12T03:50:26.629Z,102068.91
2019-05-12T03:54:30.113Z,102075.11
2019-05-12T03:58:34.628Z,102070.61
2019-05-12T04:02:38.396Z,102078.00
2019-05-12T04:06:44.978Z,102087.86
2019-05-12T04:10:47.036Z,102094.42
2019-05-12T04:14:51.092Z,102098.83
2019-05-12T04:18:55.337Z,102092.59
2019-05-12T04:22:59.229Z,102110.09
2019-05-12T04:27:05.379Z,102116.06
2019-05-12T04:31:08.260Z,102121.20
2019-05-12T04:35:14.788Z,102132.70
2019-05-12T04:39:18.766Z,102125.40
2019-05-12T04:43:25.311Z,102117.64
2019-05-12T04:47:27.880Z,102117.64
2019-05-12T04:51:34.675Z,102125.17
2019-05-12T04:55:36.960Z,102133.36
2019-05-12T04:59:40.523Z,102138.70
2019-05-12T05:03:44.370Z,102143.06
2019-05-12T05:07:50.009Z,102142.06
2019-05-12T05:11:54.391Z,102154.16
2019-05-12T05:15:57.941Z,102163.95
2019-05-12T05:20:03.951Z,102157.58
2019-05-12T05:24:06.782Z,102161.69
2019-05-12T05:28:10.333Z,102171.15
2019-05-12T05:32:14.108Z,102177.61
2019-05-12T05:36:19.838Z,102188.89
2019-05-12T05:40:25.977Z,102187.00
2019-05-12T05:44:29.154Z,102197.84
2019-05-12T05:48:35.188Z,102205.23
2019-05-12T05:52:38.945Z,102197.42
2019-05-12T05:56:50.682Z,102202.49
2019-05-12T06:00:48.080Z,102201.09
2019-05-12T06:04:54.092Z,102209.45
2019-05-12T06:08:58.377Z,102215.09
2019-05-12T06:13:04.111Z,102218.62
2019-05-12T06:17:07.312Z,102223.66
2019-05-12T06:21:10.885Z,102236.75
2019-05-12T06:25:16.264Z,102236.75
2019-05-12T06:29:21.941Z,102231.66
2019-05-12T06:33:31.479Z,102243.52
2019-05-12T06:37:30.366Z,102245.33
2019-05-12T06:41:34.190Z,102258.05
2019-05-12T06:45:42.657Z,102253.83
2019-05-12T06:49:43.977Z,102248.66
2019-05-12T06:53:47.640Z,102249.02
2019-05-12T06:57:53.884Z,102242.90
2019-05-12T07:02:00.444Z,102237.41
2019-05-12T07:06:04.084Z,102243.11
2019-05-12T07:10:13.079Z,102245.48
2019-05-12T07:14:22.670Z,102245.66
2019-05-12T07:18:26.122Z,102244.63
2019-05-12T07:22:26.005Z,102258.21
2019-05-12T07:26:29.434Z,102262.74
2019-05-12T07:30:35.133Z,102262.95
2019-05-12T07:34:38.635Z,102270.87
2019-05-12T07:38:44.002Z,102274.96
2019-05-12T07:42:50.457Z,102272.28
2019-05-12T07:46:54.216Z,102282.02
2019-05-12T07:51:00.532Z,102291.07
2019-05-12T07:55:04.297Z,102298.30
2019-05-12T07:59:07.928Z,102297.33
2019-05-12T08:03:15.943Z,102308.11
2019-05-12T08:07:19.792Z,102305.88
2019-05-12T08:11:23.613Z,102312.91
2019-05-12T08:15:27.094Z,102310.60
2019-05-12T08:19:30.581Z,102310.31
2019-05-12T08:23:37.440Z,102315.36
2019-05-12T08:27:45.368Z,102319.45
2019-05-12T08:31:44.831Z,102319.67
2019-05-12T08:35:48.381Z,102328.45
2019-05-12T08:39:53.250Z,102327.16
2019-05-12T08:43:58.474Z,102326.82
2019-05-12T08:48:03.849Z,102337.92
2019-05-12T08:52:07.555Z,102336.23
2019-05-12T08:56:14.729Z,102339.75
2019-05-12T09:00:19.789Z,102344.16
2019-05-12T09:04:24.778Z,102344.83
2019-05-12T09:08:29.556Z,102349.87
2019-05-12T09:12:34.619Z,102350.58
2019-05-12T09:16:38.095Z,102354.83
2019-05-12T09:20:48.733Z,102361.56
2019-05-12T09:24:46.827Z,102369.20
2019-05-12T09:28:50.577Z,102369.31
2019-05-12T09:32:56.094Z,102364.44
2019-05-12T09:37:01.059Z,102371.24
2019-05-12T09:41:05.513Z,102370.70
2019-05-12T09:45:10.534Z,102377.12
2019-05-12T09:49:14.329Z,102374.45
2019-05-12T09:53:17.918Z,102376.72
2019-05-12T09:57:23.803Z,102388.19
2019-05-12T10:01:29.279Z,102388.91
2019-05-12T10:05:39.190Z,102387.97
2019-05-12T10:09:37.690Z,102384.30
2019-05-12T10:13:41.176Z,102384.53
2019-05-12T10:17:44.642Z,102389.48
2019-05-12T10:21:49.148Z,102396.63
2019-05-12T10:25:53.876Z,102394.58
2019-05-12T10:29:57.350Z,102392.65
2019-05-12T10:34:19.164Z,102394.69
2019-05-12T10:38:24.137Z,102391.16
2019-05-12T10:42:27.769Z,102396.97
2019-05-12T10:46:31.253Z,102395.07
2019-05-12T10:50:34.785Z,102403.27
2019-05-12T10:54:43.323Z,102399.33
2019-05-12T10:58:46.116Z,102414.62
2019-05-12T11:02:49.585Z,102412.34
2019-05-12T11:06:53.995Z,102415.71
2019-05-12T11:11:00.972Z,102423.22
2019-05-12T11:15:06.602Z,102432.06
2019-05-12T11:19:10.676Z,102434.60
2019-05-12T11:23:14.559Z,102432.74
2019-05-12T11:27:20.727Z,102431.55
2019-05-12T11:31:24.428Z,102440.92
2019-05-12T11:35:28.083Z,102443.41
2019-05-12T11:39:36.732Z,102444.48
2019-05-12T11:43:36.760Z,102441.92
2019-05-12T11:47:40.237Z,102445.80
2019-05-12T11:51:43.683Z,102445.17
2019-05-12T11:55:47.168Z,102459.41
2019-05-12T12:00:02.283Z,102450.44
2019-05-12T12:03:58.868Z,102457.34
2019-05-12T12:08:03.957Z,102455.37
2019-05-12T12:12:08.078Z,102469.61
2019-05-12T12:16:13.997Z,102473.86
2019-05-12T12:20:22.493Z,102465.00
2019-05-12T12:24:29.814Z,102469.82
2019-05-12T12:28:29.088Z,102483.27
2019-05-12T12:32:33.939Z,102477.06
2019-05-12T12:36:37.463Z,102487.11
2019-05-12T12:40:41.147Z,102491.79
2019-05-12T12:44:44.700Z,102490.56
2019-05-12T12:48:48.196Z,102498.10
2019-05-12T12:52:53.412Z,102508.13
2019-05-12T12:57:00.223Z,102521.55
2019-05-12T13:01:03.682Z,102512.55
2019-05-12T13:05:07.327Z,102513.28
2019-05-12T13:09:18.218Z,102525.06
2019-05-12T13:13:16.648Z,102529.74
2019-05-12T13:17:20.113Z,102526.64
2019-05-12T13:21:23.937Z,102541.02
2019-05-12T13:25:27.419Z,102536.91
2019-05-12T13:29:38.609Z,102535.09
2019-05-12T13:33:39.263Z,102540.49
2019-05-12T13:37:56.399Z,102535.27
2019-05-12T13:42:00.344Z,102552.47
2019-05-12T13:46:03.893Z,102552.72
2019-05-12T13:50:13.315Z,102546.97
2019-05-12T13:54:14.405Z,102554.06
2019-05-12T13:58:18.020Z,102560.75
2019-05-12T14:02:22.351Z,102563.46
2019-05-12T14:06:32.058Z,102566.91
2019-05-12T14:10:35.570Z,102565.34
2019-05-12T14:14:38.144Z,102571.19
2019-05-12T14:18:44.021Z,102576.57
2019-05-12T14:22:47.018Z,102582.77
2019-05-12T14:32:12.297Z,102592.55
2019-05-12T14:36:21.282Z,102595.20
2019-05-12T14:40:21.287Z,102606.66
2019-05-12T14:44:23.814Z,102602.70
2019-05-12T14:48:27.787Z,102604.34
2019-05-12T14:52:33.311Z,102606.29
2019-05-12T14:56:36.592Z,102609.67
2019-05-12T15:00:40.535Z,102623.69
2019-05-12T15:04:44.603Z,102614.11
2019-05-12T15:08:48.084Z,102623.38
2019-05-12T15:12:54.329Z,102620.59
2019-05-12T15:16:58.042Z,102625.81
2019-05-12T15:21:03.562Z,102623.02
2019-05-12T15:25:07.180Z,102631.53
2019-05-12T15:29:13.385Z,102632.63
2019-05-12T15:33:16.321Z,102637.16
2019-05-12T15:37:19.879Z,102642.28
2019-05-12T15:41:23.873Z,102641.91
2019-05-12T15:45:27.530Z,102648.22
2019-05-12T15:49:33.470Z,102645.34
2019-05-12T15:53:36.563Z,102649.43
2019-05-12T15:57:40.377Z,102651.39
2019-05-12T16:01:44.080Z,102650.83
2019-05-12T16:05:47.526Z,102658.97
2019-05-12T16:09:51.020Z,102663.55
2019-05-12T16:13:59.307Z,102667.89
2019-05-12T16:18:05.684Z,102666.69
2019-05-12T16:22:05.116Z,102662.73
2019-05-12T16:26:12.503Z,102665.54
2019-05-12T16:30:14.536Z,102670.24
2019-05-12T16:34:19.661Z,102669.18
2019-05-12T16:38:24.242Z,102668.44
2019-05-12T16:42:28.121Z,102678.30
2019-05-12T16:46:33.985Z,102679.92
2019-05-12T16:50:37.499Z,102688.80
2019-05-12T16:54:40.996Z,102696.09
2019-05-12T16:58:44.498Z,102691.33
2019-05-12T17:02:52.767Z,102700.05
2019-05-12T17:06:53.204Z,102706.27
2019-05-12T17:11:15.102Z,102706.81
2019-05-12T17:15:04.101Z,102712.16
2019-05-12T17:19:10.360Z,102711.69
2019-05-12T17:23:13.828Z,102711.48
2019-05-12T17:27:23.959Z,102722.14
2019-05-12T17:31:22.636Z,102731.87
2019-05-12T17:35:31.550Z,102734.12
2019-05-12T17:39:35.787Z,102734.21
2019-05-12T17:43:40.000Z,102735.36
2019-05-12T17:47:44.490Z,102743.41
2019-05-12T17:51:47.609Z,102744.78
2019-05-12T17:55:53.999Z,102759.42
2019-05-12T17:59:59.780Z,102755.30
2019-05-12T18:04:04.267Z,102763.71
2019-05-12T18:08:08.231Z,102766.73
2019-05-12T18:12:13.805Z,102774.37
2019-05-12T18:16:21.898Z,102774.84
2019-05-12T18:20:23.817Z,102782.02
2019-05-12T18:24:27.400Z,102785.84
2019-05-12T18:28:33.279Z,102788.80
2019-05-12T18:32:36.531Z,102796.09
2019-05-12T18:36:40.440Z,102800.94
2019-05-12T18:40:44.566Z,102808.41
2019-05-12T18:44:48.058Z,102812.78
2019-05-12T18:48:54.305Z,102822.55
2019-05-12T18:52:56.791Z,102832.12
2019-05-12T18:57:07.177Z,102829.29
2019-05-12T19:01:06.124Z,102842.59
2019-05-12T19:05:15.359Z,102839.93
2019-05-12T19:09:15.280Z,102840.11
2019-05-12T19:13:18.962Z,102842.13
2019-05-12T19:17:24.152Z,102845.34
2019-05-12T19:21:28.170Z,102853.83
2019-05-12T19:25:35.768Z,102859.36
2019-05-12T19:29:45.513Z,102864.88
2019-05-12T19:33:52.984Z,102868.39
2019-05-12T19:37:47.639Z,102872.86
2019-05-12T19:41:51.256Z,102871.61
2019-05-12T19:46:03.091Z,102884.76
2019-05-12T19:50:09.604Z,102880.70
2019-05-12T19:54:09.742Z,102893.95
2019-05-12T19:58:13.231Z,102897.73
2019-05-12T20:02:16.779Z,102897.64
2019-05-12T20:06:20.383Z,102906.91
2019-05-12T20:10:24.565Z,102909.53
2019-05-12T20:14:28.121Z,102905.83
2019-05-12T20:18:36.184Z,102913.86
2019-05-12T20:22:36.870Z,102921.65
2019-05-12T20:26:40.370Z,102921.28
2019-05-12T20:30:44.204Z,102919.11
2019-05-12T20:34:53.000Z,102931.05
2019-05-12T20:38:55.297Z,102932.42
2019-05-12T20:43:07.813Z,102932.55
2019-05-12T20:47:06.379Z,102932.55
2019-05-12T20:51:15.306Z,102933.25
2019-05-12T20:55:14.815Z,102947.96
2019-05-12T20:59:22.129Z,102946.48
2019-05-12T21:03:24.228Z,102957.69
2019-05-12T21:07:27.928Z,102964.27
2019-05-12T21:11:33.727Z,102968.72
2019-05-12T21:15:42.543Z,102972.52
2019-05-12T21:19:55.755Z,102974.91
2019-05-12T21:23:54.033Z,102982.27
2019-05-12T21:28:01.671Z,102982.27
2019-05-12T21:32:02.962Z,102980.87
2019-05-12T21:36:03.825Z,102990.70
2019-05-12T21:40:08.237Z,102994.04
2019-05-12T21:44:13.916Z,102992.51
2019-05-12T21:48:23.798Z,102992.47
2019-05-12T21:52:23.870Z,102993.38
2019-05-12T21:56:27.707Z,102997.52
2019-05-12T22:00:45.018Z,102998.42
2019-05-12T22:04:50.036Z,103000.39
2019-05-12T22:09:01.319Z,102995.31
2019-05-12T22:13:09.046Z,102998.55
2019-05-12T22:17:07.654Z,103009.81
2019-05-12T22:21:13.490Z,103006.02
2019-05-12T22:25:17.902Z,103012.07
2019-05-12T22:29:27.982Z,103015.50
2019-05-12T22:33:26.599Z,103012.13
2019-05-12T22:37:34.859Z,103021.34
2019-05-12T22:41:41.485Z,103017.53
2019-05-12T22:45:44.763Z,103027.88
2019-05-12T22:49:52.140Z,103030.69
2019-05-12T22:53:53.937Z,103036.78
2019-05-12T22:57:57.380Z,103047.03
2019-05-12T23:02:01.251Z,103048.86
2019-05-12T23:06:20.448Z,103048.72
2019-05-12T23:10:11.192Z,103054.41
2019-05-12T23:14:20.677Z,103056.92
2019-05-12T23:18:26.907Z,103049.34
2019-05-12T23:22:29.550Z,103054.08
2019-05-12T23:26:35.595Z,103059.19
2019-05-12T23:30:43.766Z,103058.78
2019-05-12T23:34:54.034Z,103065.28
2019-05-12T23:38:59.930Z,103064.08
2019-05-12T23:42:56.462Z,103064.57
2019-05-12T23:46:59.944Z,103060.81
2019-05-12T23:51:03.931Z,103061.36
2019-05-12T23:55:08.121Z,103060.44
2019-05-12T23:59:13.509Z,103062.35
